Lorenzo, Nebraska
Current Conditions -  °F | °C
As of 7:05 AM on Friday 31 Oct 2014 (Local Time) from KSNY Reporting Station
Haze Haze  
Wind Chill: 22°   Ceiling: 400
Heat Index: 30°   Visibility: 6mi
Dew Point: 28°   Wind: 9mph
Humidity: 92%   Direction: 140°SE
Pressure: 30.42"   Gusts: NA
Location:  41.108°N, 103.012°W
Report Text: KSNY 311305Z AUTO 14008KT 6SM BR OVC004 M01/M02 A3042 RMK AO2 T10111022
Loading
Personal Weather Stations






























Interactive Weather Map
Tropical Storm Tracking
New forecast layout! Learn more

10-Day Weather Forecast

Advertisements
Track Severe Weather on mobile